Time;durP1;ratioP1;P1;durP2;ratioP2;P2;SDS_P1;SDS_P2;PMS_P1;PMS_P2;Temp;Humidity;BMP_temperature;BMP_pressure;BME280_temperature;BME280_humidity;BME280_pressure;Samples;Min_cycle;Max_cycle;Signal;HPM_P1;HPM_P2
2023/08/18 00:00:43;;;;;;;0.40;0.30;;;;;;;16.26;67.66;102766.16;5052953;28;20052;-80
2023/08/18 00:03:10;;;;;;;3.65;0.30;;;;;;;16.26;67.78;102766.16;5041017;28;20123;-81
2023/08/18 00:05:39;;;;;;;3.78;0.40;;;;;;;16.22;67.88;102761.78;5058492;28;20036;-81
2023/08/18 00:08:06;;;;;;;1.73;0.20;;;;;;;16.23;68.04;102774.09;5054748;28;20057;-81
2023/08/18 00:10:33;;;;;;;1.75;0.20;;;;;;;16.21;67.95;102767.97;5055347;28;20063;-81
2023/08/18 00:13:00;;;;;;;3.20;0.20;;;;;;;16.19;67.95;102767.09;5058584;28;20056;-81
2023/08/18 00:15:27;;;;;;;2.47;1.00;;;;;;;16.19;68.37;102769.72;5054731;28;20136;-80
2023/08/18 00:17:53;;;;;;;0.50;0.30;;;;;;;16.18;68.17;102760.09;5061547;28;20059;-81
2023/08/18 00:20:21;;;;;;;3.30;0.40;;;;;;;16.14;68.49;102761.03;5056945;28;20051;-80
2023/08/18 00:22:49;;;;;;;3.60;0.88;;;;;;;16.17;68.54;102761.84;5055891;28;20392;-81
2023/08/18 00:25:16;;;;;;;2.35;0.35;;;;;;;16.17;68.65;102766.25;5056555;28;20041;-81
2023/08/18 00:27:43;;;;;;;3.85;1.08;;;;;;;16.04;68.69;102735.63;5062912;28;20040;-80
2023/08/18 00:30:10;;;;;;;1.13;0.30;;;;;;;16.15;68.84;102757.50;5062000;28;20135;-81
2023/08/18 00:32:37;;;;;;;1.30;0.25;;;;;;;16.13;69.00;102767.16;5058218;28;20048;-81
2023/08/18 00:35:05;;;;;;;0.50;0.30;;;;;;;16.13;68.98;102764.53;5051692;28;20047;-81
2023/08/18 00:37:32;;;;;;;0.60;0.30;;;;;;;16.13;69.19;102769.81;5060154;28;20617;-80
2023/08/18 00:40:00;;;;;;;1.67;0.40;;;;;;;16.13;69.44;102769.81;5055576;28;20068;-81
2023/08/18 00:42:27;;;;;;;1.20;0.52;;;;;;;16.10;69.37;102769.84;5057667;28;20040;-81
2023/08/18 00:44:54;;;;;;;2.88;0.30;;;;;;;16.11;69.52;102764.56;5059205;28;20051;-81
2023/08/18 00:47:21;;;;;;;1.25;0.30;;;;;;;16.12;69.69;102774.22;5056268;28;20453;-81
2023/08/18 00:49:48;;;;;;;0.40;0.20;;;;;;;15.92;69.79;102739.25;5054934;28;20051;-73
2023/08/18 00:52:17;;;;;;;1.20;0.30;;;;;;;16.12;69.85;102765.44;5051182;28;20441;-74
2023/08/18 00:54:45;;;;;;;3.35;0.30;;;;;;;16.11;69.72;102763.69;5052780;28;20053;-73
2023/08/18 00:57:13;;;;;;;2.25;0.30;;;;;;;16.11;70.14;102763.69;5052413;28;20044;-73
2023/08/18 00:59:40;;;;;;;1.95;0.30;;;;;;;16.11;69.79;102779.50;5051334;28;20045;-76
2023/08/18 01:02:07;;;;;;;0.77;0.30;;;;;;;16.11;70.07;102768.97;5054608;28;20676;-78
2023/08/18 01:04:34;;;;;;;2.30;0.30;;;;;;;16.10;70.18;102765.44;5050439;28;20048;-76
2023/08/18 01:07:01;;;;;;;2.65;0.22;;;;;;;16.10;70.33;102775.09;5057875;28;20043;-77
2023/08/18 01:09:29;;;;;;;1.15;0.30;;;;;;;16.10;70.27;102773.34;5050478;28;20045;-77
2023/08/18 01:12:07;;;;;;;2.25;0.30;;;;;;;16.11;70.39;102768.97;5049408;28;20143;-77
2023/08/18 01:14:42;;;;;;;0.77;0.30;;;;;;;16.10;70.52;102772.47;5051575;28;20067;-76
2023/08/18 01:17:17;;;;;;;2.05;0.30;;;;;;;16.08;70.62;102761.97;5054831;28;20768;-77
2023/08/18 01:19:44;;;;;;;;;;;;;;;16.10;69.81;102770.69;5059825;28;20054;-77
2023/08/18 01:22:14;;;;;;;3.38;0.30;;;;;;;16.06;70.37;102763.72;5051335;28;20414;-76
2023/08/18 01:24:42;;;;;;;2.95;0.30;;;;;;;16.08;70.54;102758.41;5056260;28;20048;-77
2023/08/18 01:27:09;;;;;;;0.30;0.20;;;;;;;15.96;70.69;102740.97;5054577;28;20041;-77
2023/08/18 01:29:37;;;;;;;1.73;0.30;;;;;;;16.08;70.72;102761.06;5054251;28;20036;-77
2023/08/18 01:32:06;;;;;;;1.10;0.38;;;;;;;16.08;70.63;102755.78;5050525;28;20045;-77
2023/08/18 01:34:37;;;;;;;3.10;0.30;;;;;;;16.08;70.91;102756.69;5050254;28;20045;-77
2023/08/18 01:37:04;;;;;;;5.80;0.50;;;;;;;16.08;70.86;102755.78;5057913;28;20045;-77
2023/08/18 01:39:34;;;;;;;0.30;0.20;;;;;;;16.05;70.74;102750.53;5051954;28;20418;-77
2023/08/18 01:42:03;;;;;;;5.55;0.30;;;;;;;16.08;70.95;102756.69;5054175;28;20603;-77
2023/08/18 01:44:30;;;;;;;2.17;0.30;;;;;;;16.08;71.00;102755.78;5054755;28;20045;-78
2023/08/18 01:46:57;;;;;;;3.72;1.00;;;;;;;16.08;70.89;102755.78;5049863;28;20432;-77
2023/08/18 01:49:24;;;;;;;0.40;0.30;;;;;;;16.07;70.91;102748.78;5062004;28;20479;-77
2023/08/18 01:51:51;;;;;;;0.20;0.20;;;;;;;16.04;71.15;102748.81;5057832;28;20055;-77
2023/08/18 01:54:18;;;;;;;0.45;0.20;;;;;;;16.07;70.97;102754.91;5057446;28;20041;-77
2023/08/18 01:56:45;;;;;;;4.43;0.32;;;;;;;16.07;70.90;102754.03;5061424;28;21131;-77
2023/08/18 01:59:15;;;;;;;1.00;0.50;;;;;;;16.07;71.20;102756.69;5052836;28;20055;-77
2023/08/18 02:01:42;;;;;;;1.10;0.30;;;;;;;16.06;71.01;102760.22;5056824;28;20045;-75
2023/08/18 02:04:09;;;;;;;3.58;0.30;;;;;;;16.05;71.08;102761.09;5048035;28;20119;-76
2023/08/18 02:06:36;;;;;;;2.88;0.30;;;;;;;16.05;71.08;102750.53;5040693;28;20062;-76
2023/08/18 02:09:03;;;;;;;0.52;0.30;;;;;;;16.04;71.00;102748.81;5057236;28;20129;-76
2023/08/18 02:11:30;;;;;;;0.82;0.35;;;;;;;16.01;71.07;102744.44;5052336;28;20049;-76
2023/08/18 02:13:57;;;;;;;3.72;0.70;;;;;;;16.03;71.16;102744.44;5054227;28;20041;-78
2023/08/18 02:16:25;;;;;;;4.70;0.30;;;;;;;16.04;70.78;102738.25;5057361;28;20040;-77
2023/08/18 02:18:52;;;;;;;0.43;0.20;;;;;;;15.98;70.96;102738.31;5055480;28;20047;-77
2023/08/18 02:21:19;;;;;;;2.08;0.40;;;;;;;16.02;71.12;102737.41;5054642;28;20048;-77
2023/08/18 02:23:46;;;;;;;0.93;0.20;;;;;;;16.01;71.14;102728.63;5056628;28;20053;-77
2023/08/18 02:26:13;;;;;;;1.67;0.38;;;;;;;16.01;71.46;102733.88;5053171;28;20095;-77
2023/08/18 02:28:39;;;;;;;0.40;0.30;;;;;;;16.01;71.58;102733.03;5056829;28;20514;-76
2023/08/18 02:31:10;;;;;;;2.47;0.30;;;;;;;15.99;71.63;102743.56;5052574;28;20509;-76
2023/08/18 02:33:38;;;;;;;0.43;0.43;;;;;;;16.00;71.56;102740.06;5056650;28;20489;-79
2023/08/18 02:36:06;;;;;;;1.30;0.30;;;;;;;15.99;71.56;102734.78;5055454;28;20502;-77
2023/08/18 02:38:35;;;;;;;2.70;0.30;;;;;;;16.00;71.72;102745.34;5054260;28;20099;-77
2023/08/18 02:41:02;;;;;;;0.73;0.20;;;;;;;16.00;71.46;102732.16;5054072;28;20546;-76
2023/08/18 02:43:29;;;;;;;1.48;0.30;;;;;;;16.01;71.64;102748.84;5056870;28;20483;-77
2023/08/18 02:45:57;;;;;;;1.40;0.30;;;;;;;15.93;71.71;102736.59;5053383;28;20056;-77
2023/08/18 02:48:24;;;;;;;3.22;0.32;;;;;;;15.98;71.82;102743.59;5058498;28;20045;-77
2023/08/18 02:51:01;;;;;;;1.80;0.68;;;;;;;15.92;71.77;102734.00;5054962;28;20048;-77
2023/08/18 02:53:28;;;;;;;1.50;0.45;;;;;;;15.98;71.84;102749.75;5052297;28;20067;-77
2023/08/18 02:55:55;;;;;;;0.55;0.30;;;;;;;16.01;71.82;102751.47;5043249;28;20044;-78
2023/08/18 02:58:23;;;;;;;2.58;0.30;;;;;;;16.00;71.73;102749.75;5058731;28;20062;-78
2023/08/18 03:00:50;;;;;;;0.80;0.30;;;;;;;16.00;71.84;102749.75;5052617;28;20056;-76
2023/08/18 03:03:16;;;;;;;0.47;0.30;;;;;;;15.99;71.94;102748.84;5054024;28;20044;-76
2023/08/18 03:05:43;;;;;;;0.30;0.20;;;;;;;15.99;71.91;102743.56;5059281;28;20422;-77
2023/08/18 03:08:12;;;;;;;1.77;0.40;;;;;;;15.99;71.84;102740.06;5057120;28;20415;-77
2023/08/18 03:10:39;;;;;;;0.77;0.30;;;;;;;15.99;71.57;102750.59;5057313;28;20131;-74
2023/08/18 03:13:05;;;;;;;2.28;0.30;;;;;;;15.98;71.92;102739.19;5054779;28;20051;-75
2023/08/18 03:15:32;;;;;;;1.83;0.30;;;;;;;15.93;71.87;102741.00;5052077;28;20601;-74
2023/08/18 03:17:59;;;;;;;0.68;0.32;;;;;;;15.93;71.82;102739.22;5057205;28;20044;-74
2023/08/18 03:20:26;;;;;;;0.95;0.30;;;;;;;15.91;71.82;102748.94;5052317;28;20116;-75
2023/08/18 03:22:53;;;;;;;0.52;0.40;;;;;;;15.92;72.12;102744.53;5061846;28;20048;-75
2023/08/18 03:25:22;;;;;;;1.23;0.32;;;;;;;15.86;71.75;102728.78;5050913;28;20056;-76
2023/08/18 03:27:49;;;;;;;0.70;0.50;;;;;;;15.93;71.92;102746.28;5056464;28;20048;-75
2023/08/18 03:30:16;;;;;;;2.55;0.30;;;;;;;15.92;72.31;102740.13;5052970;28;20454;-75
2023/08/18 03:32:43;;;;;;;0.38;0.20;;;;;;;15.92;72.13;102755.94;5056407;28;20064;-75
2023/08/18 03:35:10;;;;;;;0.50;0.28;;;;;;;15.91;71.88;102754.22;5052538;28;20044;-75
2023/08/18 03:37:37;;;;;;;0.32;0.30;;;;;;;15.91;72.09;102743.66;5052571;28;20045;-75
2023/08/18 03:40:04;;;;;;;0.50;0.40;;;;;;;15.91;72.01;102743.66;5048040;28;20981;-76
2023/08/18 03:42:33;;;;;;;0.45;0.30;;;;;;;15.90;72.13;102751.56;5053740;28;20142;-75
2023/08/18 03:45:00;;;;;;;0.30;0.30;;;;;;;15.89;72.23;102742.78;5050528;28;20134;-75
2023/08/18 03:47:27;;;;;;;3.50;0.50;;;;;;;15.89;72.25;102745.44;5053480;28;20040;-75
2023/08/18 03:49:54;;;;;;;2.40;0.30;;;;;;;15.72;72.25;102721.00;5047221;28;20045;-75
2023/08/18 03:52:21;;;;;;;0.77;0.47;;;;;;;15.89;72.38;102742.78;5054319;28;20044;-75
2023/08/18 03:54:48;;;;;;;1.13;0.35;;;;;;;15.90;72.49;102748.94;5029493;28;20102;-76
2023/08/18 03:57:15;;;;;;;0.30;0.30;;;;;;;15.90;72.46;102751.56;5051468;28;20048;-75
2023/08/18 03:59:43;;;;;;;2.97;0.38;;;;;;;15.90;72.73;102746.28;5049560;28;20517;-76
2023/08/18 04:02:10;;;;;;;3.50;0.40;;;;;;;15.90;72.55;102747.16;5052700;28;20048;-75
2023/08/18 04:04:37;;;;;;;0.60;0.40;;;;;;;15.90;72.70;102747.16;5055527;28;20032;-76
2023/08/18 04:07:04;;;;;;;4.57;0.57;;;;;;;15.89;72.89;102755.97;5056747;28;20044;-75
2023/08/18 04:09:31;;;;;;;0.95;0.50;;;;;;;15.90;72.74;102746.28;5043831;28;20466;-77
2023/08/18 04:11:57;;;;;;;5.63;0.43;;;;;;;15.91;72.90;102745.44;5054626;28;20661;-76
2023/08/18 04:14:24;;;;;;;2.40;0.40;;;;;;;15.90;72.93;102747.16;5051702;28;20510;-75
2023/08/18 04:16:53;;;;;;;3.92;0.38;;;;;;;15.91;73.10;102743.66;5051480;28;20049;-75
2023/08/18 04:19:19;;;;;;;1.20;0.40;;;;;;;15.90;73.06;102747.16;5052562;28;20044;-74
2023/08/18 04:21:46;;;;;;;0.75;0.47;;;;;;;15.91;73.13;102756.84;5052986;28;20045;-73
2023/08/18 04:24:14;;;;;;;1.48;0.40;;;;;;;15.90;73.23;102751.56;5052518;28;20044;-74
2023/08/18 04:26:41;;;;;;;2.45;1.30;;;;;;;15.94;73.28;102748.03;5046770;28;20110;-74
2023/08/18 04:29:08;;;;;;;0.50;0.40;;;;;;;15.95;73.57;102750.63;5052380;28;21240;-75
2023/08/18 04:31:35;;;;;;;1.05;0.50;;;;;;;15.71;73.55;102701.69;5054945;28;20398;-80
2023/08/18 04:34:03;;;;;;;0.73;0.50;;;;;;;15.98;73.58;102740.97;5056723;28;20051;-80
2023/08/18 04:36:30;;;;;;;0.85;0.60;;;;;;;15.99;73.50;102746.19;5061821;28;20418;-80
2023/08/18 04:38:57;;;;;;;0.40;0.40;;;;;;;16.01;73.58;102746.19;5054813;28;20408;-80
2023/08/18 04:41:24;;;;;;;0.70;0.40;;;;;;;16.02;73.71;102745.31;5051785;28;20111;-80
2023/08/18 04:43:52;;;;;;;1.52;0.50;;;;;;;16.01;74.02;102739.16;5054745;28;20051;-79
2023/08/18 04:46:19;;;;;;;0.60;0.60;;;;;;;16.04;73.94;102743.53;5060433;28;20049;-80
2023/08/18 04:48:46;;;;;;;0.70;0.40;;;;;;;16.04;74.26;102735.63;5055626;28;20040;-80
2023/08/18 04:51:14;;;;;;;0.88;0.60;;;;;;;16.05;74.33;102735.63;5060685;28;20053;-79
2023/08/18 04:53:41;;;;;;;2.50;1.40;;;;;;;16.06;74.48;102737.38;5062421;28;20330;-80
2023/08/18 04:56:09;;;;;;;3.15;0.65;;;;;;;16.09;74.51;102741.72;5057266;28;20043;-81
2023/08/18 04:58:36;;;;;;;1.08;0.70;;;;;;;16.11;74.60;102740.84;5056052;28;20041;-80
2023/08/18 05:01:03;;;;;;;2.05;0.70;;;;;;;16.13;74.82;102732.88;5051744;28;20041;-80
2023/08/18 05:03:30;;;;;;;1.40;0.60;;;;;;;16.15;74.63;102725.84;5055918;28;20044;-80
2023/08/18 05:05:59;;;;;;;0.70;0.60;;;;;;;16.11;74.71;102718.88;5057432;28;20045;-79
2023/08/18 05:08:28;;;;;;;1.48;0.60;;;;;;;16.19;74.83;102733.72;5057057;28;20121;-80
2023/08/18 05:10:57;;;;;;;1.77;0.60;;;;;;;16.22;74.62;102731.91;5058745;28;20873;-81
2023/08/18 05:13:24;;;;;;;1.13;0.60;;;;;;;16.25;75.12;102735.41;5053600;28;20102;-80
2023/08/18 05:15:52;;;;;;;3.63;0.82;;;;;;;16.27;75.15;102736.25;5052170;28;20470;-80
2023/08/18 05:18:20;;;;;;;4.57;1.13;;;;;;;16.29;75.25;102734.47;5052942;28;20495;-80
2023/08/18 05:20:47;;;;;;;3.92;0.90;;;;;;;16.33;75.11;102736.19;5053240;28;20055;-79
2023/08/18 05:23:16;;;;;;;2.25;0.80;;;;;;;16.35;75.21;102737.03;5057966;28;20041;-80
2023/08/18 05:25:45;;;;;;;8.75;0.75;;;;;;;16.38;75.28;102734.38;5068857;28;20829;-79
2023/08/18 05:28:13;;;;;;;1.25;0.85;;;;;;;16.40;75.35;102743.16;5059445;28;20052;-80
2023/08/18 05:30:40;;;;;;;2.65;0.68;;;;;;;16.45;75.14;102734.28;5061643;28;20057;-76
2023/08/18 05:33:07;;;;;;;1.08;0.80;;;;;;;16.47;75.34;102737.78;5054180;28;20049;-76
2023/08/18 05:35:33;;;;;;;1.60;0.90;;;;;;;16.50;75.27;102732.47;5053642;28;20045;-76
2023/08/18 05:38:00;;;;;;;2.08;0.95;;;;;;;16.53;75.61;102737.72;5052960;28;20044;-76
2023/08/18 05:40:27;;;;;;;1.02;0.90;;;;;;;16.56;75.72;102737.69;5053990;28;20052;-74
2023/08/18 05:42:55;;;;;;;1.95;0.90;;;;;;;16.59;75.54;102732.38;5049529;28;20716;-75
2023/08/18 05:45:23;;;;;;;1.13;1.00;;;;;;;16.63;75.80;102731.44;5050090;28;20049;-75
2023/08/18 05:47:50;;;;;;;2.30;1.02;;;;;;;16.65;75.55;102737.59;5050687;28;20053;-77
2023/08/18 05:50:17;;;;;;;4.00;1.40;;;;;;;16.69;75.63;102733.13;5053326;28;20091;-75
2023/08/18 05:52:44;;;;;;;2.92;1.40;;;;;;;16.71;75.81;102737.50;5053432;28;20045;-75
2023/08/18 05:55:10;;;;;;;2.25;1.23;;;;;;;16.76;75.75;102734.78;5056057;28;20060;-76
2023/08/18 05:57:41;;;;;;;2.35;1.08;;;;;;;16.78;75.84;102741.81;5057506;28;20045;-75
2023/08/18 06:00:13;;;;;;;2.17;0.80;;;;;;;16.81;75.63;102733.88;5050781;28;20041;-75
2023/08/18 06:02:40;;;;;;;1.00;0.80;;;;;;;16.84;75.78;102727.69;5056719;28;20080;-75
2023/08/18 06:05:08;;;;;;;1.42;0.80;;;;;;;16.88;75.43;102737.31;5054152;28;20045;-76
2023/08/18 06:07:35;;;;;;;2.92;0.82;;;;;;;16.90;75.57;102739.91;5056322;28;20487;-75
2023/08/18 06:10:02;;;;;;;2.03;0.70;;;;;;;16.95;75.83;102738.09;5050728;28;20424;-75
2023/08/18 06:12:29;;;;;;;1.55;0.80;;;;;;;16.97;75.79;102739.81;5050720;28;20044;-75
2023/08/18 06:14:56;;;;;;;1.83;1.20;;;;;;;17.00;75.60;102733.63;5058015;28;20049;-75
2023/08/18 06:17:24;;;;;;;3.80;0.90;;;;;;;17.03;75.63;102733.59;5051421;28;20048;-76
2023/08/18 06:19:51;;;;;;;3.53;0.75;;;;;;;17.06;75.50;102733.53;5057893;28;20499;-76
2023/08/18 06:22:18;;;;;;;2.20;0.70;;;;;;;17.09;75.58;102733.50;5051503;28;20503;-75
2023/08/18 06:24:45;;;;;;;1.95;0.70;;;;;;;17.13;75.74;102735.19;5053497;28;20045;-75
2023/08/18 06:27:12;;;;;;;1.00;0.65;;;;;;;17.15;75.57;102736.03;5054670;28;20037;-75
2023/08/18 06:29:40;;;;;;;2.08;0.70;;;;;;;17.21;75.68;102740.38;5054004;28;20606;-75
2023/08/18 06:32:07;;;;;;;2.45;0.60;;;;;;;17.22;75.71;102734.22;5052037;28;20049;-73
2023/08/18 06:34:35;;;;;;;2.58;0.80;;;;;;;17.22;75.48;102724.50;5050759;28;20420;-74
2023/08/18 06:37:03;;;;;;;1.83;0.50;;;;;;;17.30;75.35;102743.75;5053052;28;20045;-75
2023/08/18 06:39:30;;;;;;;2.15;0.73;;;;;;;17.31;75.20;102742.84;5049096;28;20420;-77
2023/08/18 06:41:57;;;;;;;2.20;0.52;;;;;;;17.39;75.03;102739.19;5054768;28;20051;-76
2023/08/18 06:44:24;;;;;;;2.72;0.60;;;;;;;17.42;75.19;102741.81;5054604;28;20428;-76
2023/08/18 06:46:51;;;;;;;6.85;0.47;;;;;;;17.46;75.43;102735.59;5057599;28;20048;-76
2023/08/18 06:49:18;;;;;;;1.02;0.60;;;;;;;17.49;75.08;102730.25;5051737;28;20472;-74
2023/08/18 06:51:46;;;;;;;0.47;0.47;;;;;;;17.54;75.10;102733.69;5051176;28;20404;-72
2023/08/18 06:54:13;;;;;;;3.42;0.63;;;;;;;17.51;75.08;102718.75;5049542;28;20061;-72
2023/08/18 06:56:40;;;;;;;1.23;0.50;;;;;;;17.61;75.00;102730.03;5052173;28;20106;-72
2023/08/18 06:59:07;;;;;;;4.32;0.40;;;;;;;17.65;74.87;102729.09;5048654;28;20040;-75
2023/08/18 07:01:34;;;;;;;2.15;0.50;;;;;;;17.69;74.84;102730.78;5054732;28;20040;-72
2023/08/18 07:04:04;;;;;;;0.88;0.45;;;;;;;17.72;74.71;102725.44;5050441;28;20067;-72
2023/08/18 07:06:31;;;;;;;0.95;0.40;;;;;;;17.75;74.70;102725.38;5050149;28;20499;-72
2023/08/18 07:08:59;;;;;;;3.65;0.50;;;;;;;17.78;74.75;102724.50;5053879;28;20526;-73
2023/08/18 07:11:26;;;;;;;1.50;0.40;;;;;;;17.82;74.73;102730.63;5049205;28;20044;-73
2023/08/18 07:13:53;;;;;;;2.63;0.50;;;;;;;17.85;74.62;102735.84;5053079;28;20997;-72
2023/08/18 07:16:20;;;;;;;4.03;0.82;;;;;;;17.89;74.68;102740.16;5054455;28;20833;-72
2023/08/18 07:18:47;;;;;;;5.50;0.47;;;;;;;17.91;74.56;102733.97;5053903;28;20044;-72
2023/08/18 07:21:13;;;;;;;0.38;0.32;;;;;;;17.90;74.53;102724.28;5055597;28;20163;-72
2023/08/18 07:23:40;;;;;;;1.45;0.40;;;;;;;18.00;74.48;102740.84;5055067;28;20051;-72
2023/08/18 07:26:09;;;;;;;2.30;0.50;;;;;;;18.03;74.55;102746.09;5054183;28;20041;-74
2023/08/18 07:28:35;;;;;;;0.90;0.40;;;;;;;18.07;74.24;102744.25;5054009;28;20483;-72
2023/08/18 07:31:04;;;;;;;1.58;0.40;;;;;;;18.09;74.28;102735.38;5046029;28;20055;-73
2023/08/18 07:33:31;;;;;;;2.33;0.40;;;;;;;18.12;74.28;102740.63;5049626;28;20095;-73
2023/08/18 07:35:58;;;;;;;2.75;0.30;;;;;;;18.16;74.23;102747.63;5048139;28;20071;-73
2023/08/18 07:38:25;;;;;;;2.30;0.32;;;;;;;18.19;74.25;102730.81;5050831;28;20053;-73
2023/08/18 07:40:53;;;;;;;1.40;0.30;;;;;;;18.24;74.32;102733.34;5048876;28;20044;-73
2023/08/18 07:43:21;;;;;;;4.13;0.50;;;;;;;18.27;74.57;102728.91;5050644;28;20037;-73
2023/08/18 07:45:48;;;;;;;4.22;0.60;;;;;;;18.31;73.97;102735.00;5047988;28;20051;-73
2023/08/18 07:48:15;;;;;;;2.17;0.30;;;;;;;18.34;74.12;102738.44;5049359;28;20047;-73
2023/08/18 07:50:42;;;;;;;0.73;0.30;;;;;;;18.37;73.92;102737.50;5052877;28;20506;-80
2023/08/18 07:53:09;;;;;;;1.30;0.30;;;;;;;18.43;73.97;102745.31;5053923;28;20625;-80
2023/08/18 07:55:36;;;;;;;0.60;0.30;;;;;;;18.46;73.92;102750.56;5062288;28;20471;-79
2023/08/18 07:58:03;;;;;;;0.90;0.20;;;;;;;18.49;73.57;102753.13;5059057;28;20109;-79
2023/08/18 08:00:32;;;;;;;0.60;0.30;;;;;;;18.42;73.48;102735.66;5060560;28;20424;-77
2023/08/18 08:02:59;;;;;;;1.17;0.30;;;;;;;18.56;73.53;102757.41;5052838;28;20404;-79
2023/08/18 08:05:27;;;;;;;0.30;0.30;;;;;;;18.51;73.68;102740.75;5054769;28;20037;-79
2023/08/18 08:07:54;;;;;;;0.85;0.28;;;;;;;18.63;73.61;102753.72;5057865;28;20106;-78
2023/08/18 08:10:21;;;;;;;1.67;0.20;;;;;;;18.68;73.68;102755.41;5049971;28;20037;-78
2023/08/18 08:12:49;;;;;;;0.60;0.30;;;;;;;18.61;73.74;102734.38;5057725;28;20062;-80
2023/08/18 08:15:17;;;;;;;0.90;0.30;;;;;;;18.74;73.40;102747.38;5055850;28;20044;-79
2023/08/18 08:17:45;;;;;;;1.00;0.50;;;;;;;18.77;73.38;102747.31;5051850;28;20128;-78
2023/08/18 08:20:15;;;;;;;4.68;0.35;;;;;;;18.77;73.09;102747.31;5052825;28;20044;-77
2023/08/18 08:22:42;;;;;;;0.77;0.30;;;;;;;18.80;73.27;102745.47;5053246;28;20056;-77
2023/08/18 08:25:11;;;;;;;0.70;0.32;;;;;;;18.74;73.14;102745.59;5050632;28;20045;-76
2023/08/18 08:27:37;;;;;;;2.45;0.30;;;;;;;18.87;73.07;102759.47;5057205;28;20106;-77
2023/08/18 08:30:05;;;;;;;4.43;0.45;;;;;;;18.90;73.05;102758.50;5052317;28;20045;-76
2023/08/18 08:32:32;;;;;;;2.53;0.85;;;;;;;18.91;73.09;102752.31;5048752;28;20406;-77
2023/08/18 08:35:01;;;;;;;1.95;0.22;;;;;;;18.93;73.20;102751.38;5055813;28;20080;-77
2023/08/18 08:37:28;;;;;;;1.05;0.30;;;;;;;18.96;73.08;102755.75;5046759;28;20609;-77
2023/08/18 08:39:55;;;;;;;4.22;0.30;;;;;;;18.97;73.09;102758.34;5060988;28;20418;-76
2023/08/18 08:42:23;;;;;;;1.20;0.30;;;;;;;18.98;73.09;102754.81;5051991;28;20052;-76
2023/08/18 08:44:51;;;;;;;0.40;0.30;;;;;;;18.98;73.10;102749.50;5058438;28;20780;-78
2023/08/18 08:47:18;;;;;;;1.23;0.20;;;;;;;19.04;73.16;102754.66;5050921;28;20480;-76
2023/08/18 08:49:47;;;;;;;1.08;0.30;;;;;;;19.06;73.15;102751.97;5053560;28;20056;-77
2023/08/18 08:52:16;;;;;;;3.30;0.32;;;;;;;19.07;73.32;102754.59;5054122;28;20049;-76
2023/08/18 08:54:50;;;;;;;1.25;0.35;;;;;;;19.09;73.33;102750.09;5052414;28;20059;-76
2023/08/18 08:57:18;;;;;;;2.13;0.30;;;;;;;19.12;73.43;102751.81;5052017;28;20495;-76
2023/08/18 08:59:45;;;;;;;3.78;0.52;;;;;;;19.13;73.46;102752.72;5055628;28;20052;-81
2023/08/18 09:02:12;;;;;;;1.77;0.38;;;;;;;19.16;73.30;102748.22;5059211;28;20431;-81
2023/08/18 09:04:39;;;;;;;1.27;0.40;;;;;;;19.18;73.31;102751.69;5066891;28;20067;-85
2023/08/18 09:07:07;;;;;;;4.20;0.40;;;;;;;19.21;73.21;102750.72;5065350;28;20041;-81
2023/08/18 09:09:35;;;;;;;0.82;0.30;;;;;;;19.21;73.32;102748.97;5061110;28;20530;-78
2023/08/18 09:12:06;;;;;;;0.60;0.50;;;;;;;19.23;73.23;102751.56;5061053;28;20041;-77
2023/08/18 09:14:35;;;;;;;2.35;0.40;;;;;;;19.25;73.46;102749.78;5050868;28;20075;-76
2023/08/18 09:17:02;;;;;;;2.80;0.40;;;;;;;19.27;73.51;102753.25;5056847;28;20110;-76
2023/08/18 09:19:29;;;;;;;3.53;0.40;;;;;;;19.25;73.54;102742.69;5055966;28;20044;-77
2023/08/18 09:21:58;;;;;;;1.15;0.30;;;;;;;19.30;73.57;102756.72;5052184;28;20037;-75
2023/08/18 09:24:25;;;;;;;0.60;0.28;;;;;;;19.32;73.57;102759.31;5054765;28;20486;-74
2023/08/18 09:26:54;;;;;;;1.48;0.38;;;;;;;19.34;73.53;102757.50;5053198;28;20049;-75
2023/08/18 09:29:21;;;;;;;1.15;0.30;;;;;;;19.37;73.61;102756.56;5053367;28;20439;-75
2023/08/18 09:31:48;;;;;;;1.25;0.30;;;;;;;19.40;73.70;102759.13;5054853;28;20084;-75
2023/08/18 09:34:22;;;;;;;3.75;0.40;;;;;;;19.42;73.48;102755.53;5056976;28;20074;-75
2023/08/18 09:36:55;;;;;;;1.00;0.30;;;;;;;19.45;73.52;102750.16;5054829;28;20056;-76
2023/08/18 09:39:25;;;;;;;6.15;0.40;;;;;;;19.48;73.87;102750.09;5055621;28;20426;-75
2023/08/18 09:41:59;;;;;;;1.48;0.30;;;;;;;19.52;73.86;102746.47;5050893;28;20037;-75
2023/08/18 09:44:27;;;;;;;0.75;0.35;;;;;;;19.47;73.87;102740.41;5052891;28;20045;-75
2023/08/18 09:46:56;;;;;;;2.67;0.30;;;;;;;19.60;73.91;102758.66;5055416;28;20136;-77
2023/08/18 09:49:24;;;;;;;3.33;0.43;;;;;;;19.55;73.78;102733.13;5051816;28;20967;-75
2023/08/18 09:51:53;;;;;;;0.98;0.28;;;;;;;19.68;73.80;102748.75;5056714;28;20045;-75
2023/08/18 09:54:24;;;;;;;2.15;0.30;;;;;;;19.73;73.84;102752.16;5058737;28;20049;-75
2023/08/18 09:56:54;;;;;;;1.05;0.22;;;;;;;19.75;73.69;102750.31;5053860;28;20045;-75
2023/08/18 09:59:29;;;;;;;1.85;0.30;;;;;;;19.79;73.78;102754.66;5055547;28;20051;-76
2023/08/18 10:01:56;;;;;;;5.33;0.30;;;;;;;19.82;73.54;102756.38;5052141;28;20095;-76
2023/08/18 10:04:25;;;;;;;1.13;0.30;;;;;;;19.86;73.73;102750.94;5059304;28;20045;-76
2023/08/18 10:06:53;;;;;;;4.68;0.40;;;;;;;19.91;73.46;102748.16;5056348;28;20052;-76
2023/08/18 10:09:22;;;;;;;1.98;0.35;;;;;;;19.96;73.39;102754.22;5060239;28;20048;-76
2023/08/18 10:11:50;;;;;;;2.95;0.30;;;;;;;20.00;73.32;102759.38;5057938;28;20049;-76
2023/08/18 10:14:21;;;;;;;1.75;0.30;;;;;;;20.04;73.10;102757.56;5057962;28;20158;-76
2023/08/18 10:16:49;;;;;;;0.25;0.20;;;;;;;20.08;73.03;102747.72;5056088;28;20041;-76
2023/08/18 10:19:47;;;;;;;0.95;0.20;;;;;;;20.12;72.63;102754.66;5054925;28;20059;-77
2023/08/18 10:22:16;;;;;;;2.28;0.40;;;;;;;20.16;72.71;102748.38;5057705;28;20052;-73
2023/08/18 10:24:46;;;;;;;0.95;0.30;;;;;;;20.18;72.68;102749.22;5055417;28;20126;-73
2023/08/18 10:27:14;;;;;;;2.60;0.20;;;;;;;20.18;72.71;102742.13;5053824;28;20572;-73
2023/08/18 10:29:44;;;;;;;3.08;0.30;;;;;;;20.24;72.38;102746.41;5058875;28;20052;-72
2023/08/18 10:32:12;;;;;;;7.10;0.30;;;;;;;20.28;72.48;102753.34;5052651;28;20045;-73
2023/08/18 10:34:39;;;;;;;0.85;0.30;;;;;;;20.28;72.25;102745.38;5052379;28;20052;-75
2023/08/18 10:37:08;;;;;;;2.22;0.40;;;;;;;20.33;72.52;102756.75;5054823;28;20033;-75
2023/08/18 10:39:37;;;;;;;2.45;0.20;;;;;;;20.35;72.16;102762.91;5055947;28;20098;-74
2023/08/18 10:42:07;;;;;;;1.40;0.35;;;;;;;20.36;72.09;102753.13;5056587;28;20048;-73
2023/08/18 10:44:34;;;;;;;3.50;0.28;;;;;;;20.36;72.06;102755.78;5042662;28;20045;-75
2023/08/18 10:47:04;;;;;;;1.50;0.45;;;;;;;20.35;71.99;102751.38;5052151;28;20516;-74
2023/08/18 10:49:31;;;;;;;5.38;0.30;;;;;;;20.36;72.17;102751.34;5051430;28;20051;-75
2023/08/18 10:52:03;;;;;;;3.10;0.30;;;;;;;20.38;71.88;102752.19;5053982;28;20411;-75
2023/08/18 10:54:29;;;;;;;1.13;0.25;;;;;;;20.39;71.89;102753.91;5049946;28;20048;-75
2023/08/18 10:56:56;;;;;;;2.20;0.30;;;;;;;20.41;71.59;102749.44;5053267;28;20041;-76
2023/08/18 10:59:23;;;;;;;1.13;0.30;;;;;;;20.43;71.72;102750.28;5047954;28;20041;-75
2023/08/18 11:01:50;;;;;;;1.95;0.30;;;;;;;20.46;71.65;102751.94;5056595;28;20418;-77
2023/08/18 11:04:19;;;;;;;4.32;0.40;;;;;;;20.29;71.90;102720.59;5056747;28;20056;-76
2023/08/18 11:06:45;;;;;;;0.40;0.30;;;;;;;20.54;72.15;102757.09;5058094;28;20049;-77
2023/08/18 11:09:12;;;;;;;3.35;0.50;;;;;;;20.58;71.88;102761.41;5057829;28;20048;-77
2023/08/18 11:11:40;;;;;;;1.60;0.38;;;;;;;20.61;71.58;102750.69;5061369;28;20049;-77
2023/08/18 11:14:07;;;;;;;2.13;0.30;;;;;;;20.65;71.76;102747.03;5053173;28;20052;-78
2023/08/18 11:16:38;;;;;;;1.80;0.30;;;;;;;20.70;71.37;102745.09;5060105;28;20095;-77
2023/08/18 11:19:05;;;;;;;1.38;0.30;;;;;;;20.73;71.39;102750.31;5055782;28;20052;-77
2023/08/18 11:21:36;;;;;;;1.77;0.28;;;;;;;20.75;70.73;102742.28;5057038;28;20048;-78
2023/08/18 11:24:04;;;;;;;1.63;0.35;;;;;;;20.75;70.56;102748.50;5062507;28;20107;-77
2023/08/18 11:26:36;;;;;;;1.10;0.40;;;;;;;20.69;70.59;102738.06;5059753;28;20049;-78